Time;durP1;ratioP1;P1;durP2;ratioP2;P2;SDS_P1;SDS_P2;PMS_P1;PMS_P2;Temp;Humidity;BMP_temperature;BMP_pressure;BME280_temperature;BME280_humidity;BME280_pressure;Samples;Min_cycle;Max_cycle;Signal;HPM_P1;HPM_P2
2022/01/13 00:02:19;;;;;;;55.78;23.23;;;;;;;;;;5077220;28;20089;-62
2022/01/13 00:04:47;;;;;;;60.10;23.70;;;;;;;;;;5076870;28;20077;-62
2022/01/13 00:07:13;;;;;;;54.80;24.80;;;;;;;;;;5058560;28;20466;-63
2022/01/13 00:09:39;;;;;;;56.58;25.13;;;;;;;;;;5076703;28;20086;-63
2022/01/13 00:12:08;;;;;;;53.88;23.77;;;;;;;;;;5076416;28;20024;-61
2022/01/13 00:22:44;;;;;;;68.95;29.65;;;;;;;;;;5096450;28;20062;-63
2022/01/13 00:25:13;;;;;;;67.25;30.08;;;;;;;;;;5096957;28;20028;-63
2022/01/13 00:27:44;;;;;;;73.47;29.58;;;;;;;;;;5086156;28;20039;-63
2022/01/13 00:30:16;;;;;;;75.53;29.95;;;;;;;;;;5097003;28;20028;-63
2022/01/13 00:32:42;;;;;;;65.60;30.10;;;;;;;;;;5096664;28;20025;-64
2022/01/13 00:35:09;;;;;;;63.03;29.08;;;;;;;;;;5071296;28;20153;-63
2022/01/13 00:37:37;;;;;;;66.38;28.95;;;;;;;;;;5077600;28;20012;-63
2022/01/13 00:40:04;;;;;;;62.13;27.52;;;;;;;;;;5077527;28;20028;-63
2022/01/13 00:42:30;;;;;;;61.03;26.85;;;;;;;;;;5075856;28;20020;-63
2022/01/13 00:44:56;;;;;;;59.47;27.95;;;;;;;;;;5081479;28;20024;-63
2022/01/13 00:47:22;;;;;;;66.72;29.13;;;;;;;;;;5081869;28;20056;-62
2022/01/13 00:49:49;;;;;;;61.75;26.15;;;;;;;;;;5075534;28;20024;-64
2022/01/13 00:52:15;;;;;;;66.85;25.77;;;;;;;;;;5075922;28;20032;-63
2022/01/13 00:54:41;;;;;;;62.63;26.90;;;;;;;;;;5075431;28;20078;-64
2022/01/13 00:57:08;;;;;;;64.65;27.05;;;;;;;;;;5076028;28;20048;-62
2022/01/13 00:59:34;;;;;;;61.88;26.27;;;;;;;;;;5057844;28;20025;-65
2022/01/13 01:02:00;;;;;;;61.05;27.33;;;;;;;;;;5075491;28;20483;-62
2022/01/13 01:04:27;;;;;;;57.42;26.02;;;;;;;;;;5095219;28;20024;-62
2022/01/13 01:06:53;;;;;;;58.50;25.75;;;;;;;;;;5095763;28;20016;-62
2022/01/13 01:09:37;;;;;;;59.35;24.40;;;;;;;;;;5095297;28;20050;-62
2022/01/13 01:12:04;;;;;;;52.08;23.45;;;;;;;;;;5096518;28;20453;-63
2022/01/13 01:14:33;;;;;;;58.25;23.77;;;;;;;;;;5096357;28;20046;-62
2022/01/13 01:16:59;;;;;;;64.88;25.92;;;;;;;;;;5095222;28;20024;-64
2022/01/13 01:19:28;;;;;;;48.85;22.48;;;;;;;;;;5077511;28;20118;-63
2022/01/13 01:27:19;;;;;;;67.13;25.67;;;;;;;;;;5064217;28;20032;-62
2022/01/13 01:29:54;;;;;;;56.15;25.05;;;;;;;;;;5095219;28;20020;-63
2022/01/13 01:32:20;;;;;;;51.03;23.08;;;;;;;;;;5095548;28;20490;-63
2022/01/13 01:37:18;;;;;;;49.38;22.02;;;;;;;;;;5075819;28;20032;-63
2022/01/13 01:39:45;;;;;;;52.25;22.58;;;;;;;;;;5082906;28;20115;-63
2022/01/13 01:42:11;;;;;;;60.22;26.23;;;;;;;;;;5094986;28;20021;-63
2022/01/13 01:44:42;;;;;;;53.83;21.20;;;;;;;;;;5094692;28;20020;-63
2022/01/13 01:47:10;;;;;;;48.90;20.33;;;;;;;;;;5095696;28;20377;-64
2022/01/13 01:49:41;;;;;;;52.42;22.00;;;;;;;;;;5094942;28;20097;-64
2022/01/13 01:52:08;;;;;;;41.40;18.65;;;;;;;;;;5085736;28;20024;-63
2022/01/13 01:54:34;;;;;;;44.22;19.30;;;;;;;;;;5074694;28;20457;-62
2022/01/13 01:57:00;;;;;;;47.45;20.30;;;;;;;;;;5077019;28;20047;-63
2022/01/13 01:59:30;;;;;;;123.78;49.50;;;;;;;;;;5076549;28;20033;-62
2022/01/13 02:01:57;;;;;;;60.45;26.65;;;;;;;;;;5074156;28;20102;-63
2022/01/13 02:04:27;;;;;;;52.33;22.48;;;;;;;;;;5081464;28;20031;-63
2022/01/13 02:06:55;;;;;;;41.90;18.60;;;;;;;;;;5094807;28;20043;-63
2022/01/13 02:09:21;;;;;;;43.15;18.90;;;;;;;;;;5094855;28;20384;-63
2022/01/13 02:11:52;;;;;;;45.45;19.20;;;;;;;;;;5094425;28;20039;-63
2022/01/13 02:16:53;;;;;;;41.67;17.95;;;;;;;;;;5080699;28;20040;-62
2022/01/13 02:19:20;;;;;;;37.28;16.80;;;;;;;;;;5074643;28;20113;-63
2022/01/13 02:21:46;;;;;;;40.08;17.13;;;;;;;;;;5076369;28;20024;-62
2022/01/13 02:24:12;;;;;;;35.10;14.27;;;;;;;;;;5094497;28;20023;-64
2022/01/13 02:26:38;;;;;;;32.63;14.63;;;;;;;;;;5094122;28;20020;-64
2022/01/13 02:29:04;;;;;;;39.63;16.23;;;;;;;;;;5094013;28;20024;-63
2022/01/13 02:31:31;;;;;;;40.08;16.42;;;;;;;;;;5090089;28;20025;-64
2022/01/13 02:33:57;;;;;;;43.30;19.63;;;;;;;;;;5094021;28;20048;-63
2022/01/13 02:36:24;;;;;;;37.58;18.00;;;;;;;;;;5092428;28;20103;-63
2022/01/13 02:38:51;;;;;;;39.08;17.70;;;;;;;;;;5092607;28;20429;-62
2022/01/13 02:41:17;;;;;;;49.92;20.75;;;;;;;;;;5093557;28;20024;-62
2022/01/13 02:43:45;;;;;;;51.05;21.00;;;;;;;;;;5093943;28;20023;-62
2022/01/13 02:46:31;;;;;;;38.67;15.90;;;;;;;;;;5074152;28;20032;-62
2022/01/13 02:48:57;;;;;;;36.35;15.15;;;;;;;;;;5073942;28;20021;-63
2022/01/13 02:51:32;;;;;;;37.13;15.77;;;;;;;;;;5073868;28;20025;-64
2022/01/13 02:54:07;;;;;;;33.15;14.27;;;;;;;;;;5070091;28;20504;-62
2022/01/13 02:56:34;;;;;;;36.58;15.90;;;;;;;;;;5077332;28;20039;-63
2022/01/13 02:59:00;;;;;;;61.08;25.35;;;;;;;;;;5094057;28;20103;-63
2022/01/13 03:01:26;;;;;;;61.80;26.83;;;;;;;;;;5089422;28;20369;-62
2022/01/13 03:03:53;;;;;;;66.20;27.90;;;;;;;;;;5094122;28;20025;-63
2022/01/13 03:06:23;;;;;;;71.50;29.50;;;;;;;;;;5093778;28;20050;-62
2022/01/13 03:08:51;;;;;;;76.47;29.42;;;;;;;;;;5083323;28;20024;-65
2022/01/13 03:11:18;;;;;;;58.65;24.73;;;;;;;;;;5073618;28;20038;-63
2022/01/13 03:13:45;;;;;;;44.15;19.60;;;;;;;;;;5073521;28;20029;-64
2022/01/13 03:16:13;;;;;;;55.25;22.70;;;;;;;;;;5079286;28;20020;-64
2022/01/13 03:18:39;;;;;;;54.05;21.83;;;;;;;;;;5081816;28;20033;-63
2022/01/13 03:21:07;;;;;;;59.92;24.80;;;;;;;;;;5073476;28;20572;-64
2022/01/13 03:23:36;;;;;;;56.40;24.98;;;;;;;;;;5072978;28;20458;-63
2022/01/13 03:26:03;;;;;;;56.38;23.33;;;;;;;;;;5072989;28;20031;-63
2022/01/13 03:31:26;;;;;;;55.65;24.23;;;;;;;;;;5065175;28;20474;-63
2022/01/13 03:33:53;;;;;;;57.00;23.60;;;;;;;;;;5055397;28;20021;-63
2022/01/13 03:36:19;;;;;;;58.75;26.08;;;;;;;;;;5055027;28;20032;-63
2022/01/13 03:38:45;;;;;;;64.75;27.17;;;;;;;;;;5073310;28;20020;-63
2022/01/13 03:41:12;;;;;;;57.53;24.48;;;;;;;;;;5055323;28;20490;-63
2022/01/13 03:43:38;;;;;;;57.53;23.90;;;;;;;;;;5083348;28;20350;-64
2022/01/13 03:46:05;;;;;;;59.75;24.83;;;;;;;;;;5093496;28;20024;-62
2022/01/13 03:48:31;;;;;;;71.68;26.73;;;;;;;;;;5080305;28;20016;-62
2022/01/13 03:50:58;;;;;;;57.58;24.65;;;;;;;;;;5065503;28;20097;-64
2022/01/13 03:53:27;;;;;;;63.92;26.00;;;;;;;;;;5091670;28;20023;-63
2022/01/13 03:56:12;;;;;;;71.93;25.70;;;;;;;;;;5073508;28;20048;-63
2022/01/13 03:59:04;;;;;;;56.03;22.48;;;;;;;;;;5072415;28;20048;-63
2022/01/13 04:01:49;;;;;;;52.00;22.73;;;;;;;;;;5050231;28;20049;-62
2022/01/13 04:04:15;;;;;;;56.53;23.85;;;;;;;;;;5073330;28;20372;-62
2022/01/13 04:06:43;;;;;;;61.70;27.38;;;;;;;;;;5073429;28;20025;-62
2022/01/13 04:09:30;;;;;;;67.75;25.98;;;;;;;;;;5073348;28;20052;-62
2022/01/13 04:11:56;;;;;;;57.20;23.88;;;;;;;;;;5072529;28;20028;-62
2022/01/13 04:14:30;;;;;;;59.53;25.67;;;;;;;;;;5076624;28;20103;-63
2022/01/13 04:16:56;;;;;;;55.85;24.95;;;;;;;;;;5076493;28;20025;-63
2022/01/13 04:19:22;;;;;;;63.90;26.58;;;;;;;;;;5096071;28;20084;-62
2022/01/13 04:21:48;;;;;;;65.03;27.10;;;;;;;;;;5097149;28;20028;-63
2022/01/13 04:24:15;;;;;;;65.97;27.23;;;;;;;;;;5096513;28;20435;-63
2022/01/13 04:26:43;;;;;;;65.50;27.92;;;;;;;;;;5096154;28;20024;-62
2022/01/13 04:31:36;;;;;;;66.30;27.42;;;;;;;;;;5096351;28;20032;-63
2022/01/13 04:34:02;;;;;;;66.70;28.38;;;;;;;;;;5079418;28;20025;-63
2022/01/13 04:36:29;;;;;;;58.63;24.13;;;;;;;;;;5076853;28;20032;-62
2022/01/13 04:38:55;;;;;;;56.47;25.17;;;;;;;;;;5075811;28;20129;-63
2022/01/13 04:41:34;;;;;;;62.20;25.90;;;;;;;;;;5076449;28;20035;-63
2022/01/13 04:44:00;;;;;;;59.20;25.27;;;;;;;;;;5076033;28;20485;-63
2022/01/13 04:46:26;;;;;;;48.90;22.40;;;;;;;;;;5081900;28;20077;-62
2022/01/13 04:48:53;;;;;;;57.00;24.75;;;;;;;;;;5076150;28;20020;-62
2022/01/13 04:51:19;;;;;;;61.25;24.52;;;;;;;;;;5075360;28;20027;-62
2022/01/13 04:53:46;;;;;;;52.15;23.38;;;;;;;;;;5076027;28;20078;-63
2022/01/13 04:56:16;;;;;;;51.20;20.58;;;;;;;;;;5075881;28;20561;-63
2022/01/13 04:58:42;;;;;;;51.08;21.15;;;;;;;;;;5076919;28;20048;-62
2022/01/13 05:01:08;;;;;;;49.97;20.90;;;;;;;;;;5075521;28;20469;-62
2022/01/13 05:03:34;;;;;;;48.03;21.65;;;;;;;;;;5085291;28;20390;-62
2022/01/13 05:06:00;;;;;;;54.00;21.83;;;;;;;;;;5095530;28;20449;-63
2022/01/13 05:08:27;;;;;;;53.00;22.92;;;;;;;;;;5095740;28;20030;-64
2022/01/13 05:10:53;;;;;;;48.17;22.05;;;;;;;;;;5095964;28;20020;-64
2022/01/13 05:13:19;;;;;;;55.47;22.73;;;;;;;;;;5095884;28;20081;-62
2022/01/13 05:15:46;;;;;;;50.10;22.40;;;;;;;;;;5095172;28;20022;-62
2022/01/13 05:20:49;;;;;;;49.22;20.63;;;;;;;;;;5095741;28;20036;-64
2022/01/13 05:23:16;;;;;;;49.47;20.50;;;;;;;;;;5095898;28;20028;-62
2022/01/13 05:25:43;;;;;;;52.28;21.85;;;;;;;;;;5095054;28;20031;-62
2022/01/13 05:28:11;;;;;;;53.72;20.92;;;;;;;;;;5095354;28;20051;-63
2022/01/13 05:30:37;;;;;;;41.67;19.80;;;;;;;;;;5095308;28;20024;-63
2022/01/13 05:33:04;;;;;;;55.75;22.50;;;;;;;;;;5095588;28;20051;-63
2022/01/13 05:35:30;;;;;;;53.28;22.40;;;;;;;;;;5095161;28;20020;-63
2022/01/13 05:37:56;;;;;;;46.05;22.67;;;;;;;;;;5095185;28;20027;-63
2022/01/13 05:40:23;;;;;;;61.45;25.80;;;;;;;;;;5095616;28;20020;-63
2022/01/13 05:42:50;;;;;;;60.50;25.17;;;;;;;;;;5094908;28;20411;-63
2022/01/13 05:45:18;;;;;;;52.75;23.67;;;;;;;;;;5095029;28;20020;-63
2022/01/13 05:47:45;;;;;;;59.90;25.23;;;;;;;;;;5095319;28;20107;-63
2022/01/13 05:50:12;;;;;;;61.55;27.67;;;;;;;;;;5094951;28;20530;-63
2022/01/13 05:52:38;;;;;;;58.13;25.80;;;;;;;;;;5095510;28;20069;-63
2022/01/13 05:55:06;;;;;;;61.75;26.67;;;;;;;;;;5085178;28;20489;-63
2022/01/13 05:57:32;;;;;;;70.93;28.73;;;;;;;;;;5081500;28;20097;-63
2022/01/13 05:59:58;;;;;;;59.75;26.10;;;;;;;;;;5077838;28;20078;-63
2022/01/13 06:02:24;;;;;;;50.28;22.23;;;;;;;;;;5077728;28;20028;-62
2022/01/13 06:04:51;;;;;;;56.53;23.38;;;;;;;;;;5076161;28;20016;-63
2022/01/13 06:07:17;;;;;;;64.55;28.23;;;;;;;;;;5078749;28;20016;-66
2022/01/13 06:09:43;;;;;;;55.22;25.30;;;;;;;;;;5071749;28;20028;-63
2022/01/13 06:12:10;;;;;;;63.90;24.90;;;;;;;;;;5073514;28;20031;-64
2022/01/13 06:14:36;;;;;;;62.00;26.30;;;;;;;;;;5075153;28;20074;-63
2022/01/13 06:17:02;;;;;;;60.42;27.60;;;;;;;;;;5084021;28;20540;-63
2022/01/13 06:19:28;;;;;;;64.00;26.50;;;;;;;;;;5088656;28;20036;-63
2022/01/13 06:21:54;;;;;;;62.63;29.25;;;;;;;;;;5074732;28;20350;-63
2022/01/13 06:24:20;;;;;;;72.82;29.85;;;;;;;;;;5073664;28;20457;-64
2022/01/13 06:26:47;;;;;;;68.97;28.88;;;;;;;;;;5076445;28;20025;-62
2022/01/13 06:29:13;;;;;;;67.70;30.05;;;;;;;;;;5094495;28;20035;-63
2022/01/13 06:31:39;;;;;;;69.80;28.60;;;;;;;;;;5083940;28;20046;-63
2022/01/13 06:34:05;;;;;;;64.15;26.48;;;;;;;;;;5094440;28;20024;-63
2022/01/13 06:36:31;;;;;;;59.58;26.75;;;;;;;;;;5093541;28;20025;-62
2022/01/13 06:38:58;;;;;;;56.95;25.35;;;;;;;;;;5088879;28;20036;-62
2022/01/13 06:41:24;;;;;;;68.32;27.92;;;;;;;;;;5082580;28;20470;-63
2022/01/13 06:43:50;;;;;;;70.15;27.98;;;;;;;;;;5073960;28;20024;-64
2022/01/13 06:46:16;;;;;;;69.38;31.02;;;;;;;;;;5073675;28;20035;-64
2022/01/13 06:48:45;;;;;;;73.15;33.60;;;;;;;;;;5073992;28;20025;-64
2022/01/13 06:51:11;;;;;;;83.50;37.92;;;;;;;;;;5073936;28;20024;-65
2022/01/13 06:53:37;;;;;;;85.38;34.25;;;;;;;;;;5073748;28;20111;-63
2022/01/13 06:56:03;;;;;;;68.85;30.77;;;;;;;;;;5075991;28;20040;-63
2022/01/13 06:58:30;;;;;;;71.18;30.92;;;;;;;;;;5072609;28;20052;-63
2022/01/13 07:00:56;;;;;;;60.30;26.95;;;;;;;;;;5087347;28;20024;-63
2022/01/13 07:03:22;;;;;;;68.00;30.33;;;;;;;;;;5092378;28;20028;-64
2022/01/13 07:05:48;;;;;;;65.60;31.25;;;;;;;;;;5092695;28;20032;-64
2022/01/13 07:08:15;;;;;;;74.13;30.05;;;;;;;;;;5092966;28;20046;-64
2022/01/13 07:10:41;;;;;;;73.47;30.75;;;;;;;;;;5093029;28;20024;-63
2022/01/13 07:13:07;;;;;;;66.15;25.38;;;;;;;;;;5092002;28;20016;-63
2022/01/13 07:15:34;;;;;;;57.15;25.50;;;;;;;;;;5092656;28;20504;-63
2022/01/13 07:18:00;;;;;;;58.03;24.90;;;;;;;;;;5092956;28;20465;-64
2022/01/13 07:20:27;;;;;;;47.78;21.25;;;;;;;;;;5092851;28;20031;-63
2022/01/13 07:22:54;;;;;;;52.08;22.52;;;;;;;;;;5093320;28;20034;-63
2022/01/13 07:25:20;;;;;;;59.25;24.02;;;;;;;;;;5092875;28;20020;-64
2022/01/13 07:27:46;;;;;;;55.85;24.45;;;;;;;;;;5093096;28;20016;-63
2022/01/13 07:30:13;;;;;;;55.40;24.27;;;;;;;;;;5093225;28;20043;-62
2022/01/13 07:32:39;;;;;;;60.70;25.25;;;;;;;;;;5093447;28;20132;-63
2022/01/13 07:35:06;;;;;;;55.63;25.63;;;;;;;;;;5093084;28;20072;-63
2022/01/13 07:37:32;;;;;;;56.47;24.48;;;;;;;;;;5093486;28;20030;-63
2022/01/13 07:39:59;;;;;;;59.30;24.45;;;;;;;;;;5093611;28;20038;-63
2022/01/13 07:42:26;;;;;;;67.30;29.17;;;;;;;;;;5093274;28;20031;-63
2022/01/13 07:44:53;;;;;;;63.45;29.52;;;;;;;;;;5075448;28;20020;-63
2022/01/13 07:47:19;;;;;;;74.53;32.38;;;;;;;;;;5078996;28;20396;-63
2022/01/13 07:49:45;;;;;;;72.28;32.58;;;;;;;;;;5077269;28;20032;-63
2022/01/13 07:52:11;;;;;;;67.13;29.60;;;;;;;;;;5076666;28;20031;-63
2022/01/13 07:54:37;;;;;;;69.32;31.83;;;;;;;;;;5077340;28;20031;-63
2022/01/13 07:57:04;;;;;;;73.50;31.60;;;;;;;;;;5077210;28;20055;-63
2022/01/13 07:59:31;;;;;;;72.75;31.67;;;;;;;;;;5077016;28;20354;-64
2022/01/13 08:01:57;;;;;;;66.63;31.20;;;;;;;;;;5087985;28;20028;-64
2022/01/13 08:04:23;;;;;;;90.00;40.55;;;;;;;;;;5091146;28;20020;-64
2022/01/13 08:06:50;;;;;;;77.03;33.45;;;;;;;;;;5096580;28;20128;-64
2022/01/13 08:09:16;;;;;;;82.22;34.78;;;;;;;;;;5090655;28;20028;-64
2022/01/13 08:11:42;;;;;;;72.55;32.22;;;;;;;;;;5097135;28;20376;-63
2022/01/13 08:14:08;;;;;;;71.35;32.97;;;;;;;;;;5097184;28;20020;-62
2022/01/13 08:16:36;;;;;;;80.50;33.22;;;;;;;;;;5088018;28;20055;-63
2022/01/13 08:21:48;;;;;;;63.40;31.10;;;;;;;;;;5077519;28;20417;-64
2022/01/13 08:24:14;;;;;;;67.68;30.45;;;;;;;;;;5076267;28;20024;-62
2022/01/13 08:26:41;;;;;;;67.80;29.02;;;;;;;;;;5076797;28;20017;-62
2022/01/13 08:29:07;;;;;;;36.33;18.45;;;;;;;;;;5076572;28;20465;-64
2022/01/13 08:31:33;;;;;;;46.47;21.88;;;;;;;;;;5076131;28;20032;-62
2022/01/13 08:33:59;;;;;;;56.95;24.63;;;;;;;;;;5090787;28;20036;-62
2022/01/13 08:36:25;;;;;;;72.68;31.70;;;;;;;;;;5096790;28;20016;-62
2022/01/13 08:38:52;;;;;;;69.82;27.55;;;;;;;;;;5097004;28;20129;-62
2022/01/13 08:41:18;;;;;;;68.47;30.17;;;;;;;;;;5096472;28;20056;-64
2022/01/13 08:43:45;;;;;;;72.28;30.88;;;;;;;;;;5096153;28;20027;-61
2022/01/13 08:46:11;;;;;;;83.40;34.05;;;;;;;;;;5078439;28;20362;-61
2022/01/13 08:48:37;;;;;;;92.28;41.28;;;;;;;;;;5091810;28;20021;-62
2022/01/13 08:51:04;;;;;;;98.50;41.85;;;;;;;;;;5066604;28;20033;-61
2022/01/13 08:53:30;;;;;;;82.28;36.47;;;;;;;;;;5076145;28;20075;-63
2022/01/13 08:55:58;;;;;;;82.35;34.22;;;;;;;;;;5058145;28;20093;-62
2022/01/13 08:58:24;;;;;;;77.68;32.78;;;;;;;;;;5075245;28;20409;-61
2022/01/13 09:00:52;;;;;;;68.93;30.85;;;;;;;;;;5075142;28;20021;-64
2022/01/13 09:03:18;;;;;;;69.50;32.97;;;;;;;;;;5076257;28;20032;-63
2022/01/13 09:05:45;;;;;;;72.95;34.58;;;;;;;;;;5075284;28;20429;-62
2022/01/13 09:08:12;;;;;;;71.22;30.15;;;;;;;;;;5075563;28;20377;-61
2022/01/13 09:10:40;;;;;;;76.85;36.15;;;;;;;;;;5075761;28;20069;-62
2022/01/13 09:13:07;;;;;;;80.13;37.72;;;;;;;;;;5075403;28;20020;-61
2022/01/13 09:15:39;;;;;;;89.30;39.42;;;;;;;;;;5075574;28;20028;-62
2022/01/13 09:18:14;;;;;;;91.63;40.75;;;;;;;;;;5075740;28;20017;-61
2022/01/13 09:20:41;;;;;;;92.45;44.80;;;;;;;;;;5074932;28;20361;-62
2022/01/13 09:23:07;;;;;;;79.47;38.53;;;;;;;;;;5075499;28;20035;-61
2022/01/13 09:25:34;;;;;;;81.10;38.58;;;;;;;;;;5088818;28;20472;-63
2022/01/13 09:28:00;;;;;;;70.88;33.20;;;;;;;;;;5095781;28;20035;-64
2022/01/13 09:30:27;;;;;;;66.55;30.88;;;;;;;;;;5095090;28;20031;-61
2022/01/13 09:32:53;;;;;;;101.70;46.88;;;;;;;;;;5094964;28;20487;-62
2022/01/13 09:35:19;;;;;;;75.97;35.45;;;;;;;;;;5095564;28;20445;-61
2022/01/13 09:37:45;;;;;;;71.38;33.75;;;;;;;;;;5095638;28;20709;-60
2022/01/13 09:40:12;;;;;;;106.32;46.75;;;;;;;;;;5094690;28;20023;-61
2022/01/13 09:42:40;;;;;;;64.82;30.30;;;;;;;;;;5086876;28;20029;-62
2022/01/13 09:45:07;;;;;;;63.72;28.55;;;;;;;;;;5081448;28;20048;-62
2022/01/13 09:47:35;;;;;;;56.25;28.13;;;;;;;;;;5083431;28;20040;-61
2022/01/13 09:50:02;;;;;;;59.83;26.55;;;;;;;;;;5076703;28;20048;-62
2022/01/13 09:52:28;;;;;;;52.38;25.23;;;;;;;;;;5074177;28;20078;-62
2022/01/13 09:54:55;;;;;;;62.40;29.85;;;;;;;;;;5074541;28;20107;-61
2022/01/13 09:57:21;;;;;;;63.05;28.88;;;;;;;;;;5074536;28;20036;-62
2022/01/13 09:59:48;;;;;;;60.13;27.92;;;;;;;;;;5087498;28;20028;-61
2022/01/13 10:02:14;;;;;;;55.22;27.67;;;;;;;;;;5094227;28;20020;-61
2022/01/13 10:04:47;;;;;;;65.18;29.02;;;;;;;;;;5094583;28;20590;-62
2022/01/13 10:07:17;;;;;;;65.05;31.23;;;;;;;;;;5095031;28;20021;-61
2022/01/13 10:10:04;;;;;;;62.42;28.88;;;;;;;;;;5094584;28;20389;-62
2022/01/13 10:12:37;;;;;;;49.60;25.23;;;;;;;;;;5094640;28;20020;-62
2022/01/13 10:17:47;;;;;;;53.47;27.17;;;;;;;;;;5080034;28;20535;-62
2022/01/13 10:20:14;;;;;;;45.40;23.52;;;;;;;;;;5056803;28;20381;-62
2022/01/13 10:22:40;;;;;;;49.75;23.98;;;;;;;;;;5074043;28;20103;-61
2022/01/13 10:25:08;;;;;;;40.15;20.58;;;;;;;;;;5073721;28;20024;-62
2022/01/13 10:27:39;;;;;;;42.53;19.92;;;;;;;;;;5073045;28;20020;-61
2022/01/13 10:30:05;;;;;;;;;;;;;;;;;;5089843;28;20020;-61
2022/01/13 10:32:39;;;;;;;40.92;22.65;;;;;;;;;;5094680;28;20353;-62
2022/01/13 10:35:05;;;;;;;53.55;28.70;;;;;;;;;;5090669;28;20020;-62
2022/01/13 10:37:39;;;;;;;51.90;26.65;;;;;;;;;;5094150;28;20453;-62
2022/01/13 10:40:11;;;;;;;49.30;26.30;;;;;;;;;;5094249;28;20032;-56
2022/01/13 10:45:06;;;;;;;46.03;23.88;;;;;;;;;;5080334;28;20040;-51
2022/01/13 10:47:33;;;;;;;51.15;26.00;;;;;;;;;;5073643;28;20040;-50
2022/01/13 10:50:00;;;;;;;49.17;25.85;;;;;;;;;;5086848;28;20056;-51
2022/01/13 10:52:27;;;;;;;54.75;25.92;;;;;;;;;;5093622;28;20411;-49
2022/01/13 10:54:54;;;;;;;50.50;25.45;;;;;;;;;;5093866;28;20051;-52
2022/01/13 10:57:24;;;;;;;57.22;26.95;;;;;;;;;;5093627;28;20377;-49
2022/01/13 10:59:50;;;;;;;56.25;27.08;;;;;;;;;;5094233;28;20357;-47
2022/01/13 11:02:18;;;;;;;49.03;26.85;;;;;;;;;;5092543;28;20024;-48
2022/01/13 11:04:44;;;;;;;48.70;26.60;;;;;;;;;;5082525;28;20021;-50
2022/01/13 11:07:13;;;;;;;48.97;23.85;;;;;;;;;;5088904;28;20027;-48
2022/01/13 11:09:43;;;;;;;42.03;22.90;;;;;;;;;;5081005;28;20032;-52
2022/01/13 11:12:14;;;;;;;46.20;23.70;;;;;;;;;;5081758;28;20027;-53
2022/01/13 11:14:42;;;;;;;42.83;23.70;;;;;;;;;;5082679;28;20089;-49
2022/01/13 11:17:10;;;;;;;40.00;22.45;;;;;;;;;;5081943;28;20024;-47
2022/01/13 11:19:37;;;;;;;41.30;22.52;;;;;;;;;;5083574;28;20024;-51
2022/01/13 11:22:03;;;;;;;44.40;24.30;;;;;;;;;;5082577;28;20078;-51
2022/01/13 11:24:30;;;;;;;41.58;22.58;;;;;;;;;;5081409;28;20023;-51
2022/01/13 11:26:56;;;;;;;42.78;22.23;;;;;;;;;;5069678;28;20461;-59
2022/01/13 11:29:23;;;;;;;38.58;22.67;;;;;;;;;;5082608;28;20013;-51
2022/01/13 11:31:51;;;;;;;38.65;22.23;;;;;;;;;;5081491;28;20017;-48
2022/01/13 11:34:18;;;;;;;37.92;22.17;;;;;;;;;;5083031;28;20012;-53
2022/01/13 11:36:45;;;;;;;34.13;19.02;;;;;;;;;;5082466;28;20040;-54
2022/01/13 11:39:11;;;;;;;36.92;19.73;;;;;;;;;;5082298;28;20016;-54
2022/01/13 11:42:02;;;;;;;36.33;19.38;;;;;;;;;;5083243;28;20103;-52
2022/01/13 11:44:28;;;;;;;30.48;17.60;;;;;;;;;;5082753;28;20017;-50
2022/01/13 11:46:55;;;;;;;35.95;18.27;;;;;;;;;;5080397;28;20039;-55
2022/01/13 11:49:30;;;;;;;31.48;18.13;;;;;;;;;;5083755;28;20020;-54
2022/01/13 11:51:59;;;;;;;35.85;19.58;;;;;;;;;;5083278;28;20047;-53
2022/01/13 11:54:35;;;;;;;35.97;20.50;;;;;;;;;;5082397;28;20021;-49
2022/01/13 11:57:13;;;;;;;43.65;23.15;;;;;;;;;;5081737;28;20058;-55
2022/01/13 11:59:40;;;;;;;43.53;23.05;;;;;;;;;;5081127;28;20021;-53
2022/01/13 12:02:25;;;;;;;30.15;17.30;;;;;;;;;;5083061;28;20064;-50
2022/01/13 12:05:17;;;;;;;30.98;16.02;;;;;;;;;;5065791;28;20102;-49
2022/01/13 12:07:44;;;;;;;28.35;16.75;;;;;;;;;;5082014;28;20029;-54
2022/01/13 12:10:26;;;;;;;121.25;50.08;;;;;;;;;;5082365;28;20088;-54
2022/01/13 12:12:53;;;;;;;33.70;18.85;;;;;;;;;;5083422;28;20024;-52
2022/01/13 12:15:19;;;;;;;24.60;14.52;;;;;;;;;;5081376;28;20096;-52
2022/01/13 12:17:52;;;;;;;25.88;15.05;;;;;;;;;;5083154;28;20085;-54
2022/01/13 12:20:23;;;;;;;28.05;15.93;;;;;;;;;;5083750;28;20067;-55
2022/01/13 12:23:04;;;;;;;28.65;15.48;;;;;;;;;;5083267;28;20020;-50
2022/01/13 12:25:32;;;;;;;30.98;17.10;;;;;;;;;;5083659;28;20039;-51
2022/01/13 12:27:59;;;;;;;29.17;17.65;;;;;;;;;;5081285;28;20021;-50
2022/01/13 12:30:29;;;;;;;32.38;18.13;;;;;;;;;;5081844;28;20028;-49
2022/01/13 12:33:00;;;;;;;28.17;17.55;;;;;;;;;;5082299;28;20488;-50
2022/01/13 12:35:29;;;;;;;36.90;20.00;;;;;;;;;;5083216;28;20484;-53
2022/01/13 12:38:05;;;;;;;35.38;18.58;;;;;;;;;;5087289;28;20017;-53
2022/01/13 12:40:39;;;;;;;36.25;19.90;;;;;;;;;;5082533;28;20034;-55
2022/01/13 12:46:00;;;;;;;35.45;19.35;;;;;;;;;;5082501;28;20036;-53
2022/01/13 12:48:29;;;;;;;31.33;18.48;;;;;;;;;;5083579;28;20357;-54
2022/01/13 12:50:55;;;;;;;34.63;20.02;;;;;;;;;;5081932;28;20028;-52
2022/01/13 12:53:26;;;;;;;32.75;19.33;;;;;;;;;;5082840;28;20036;-49
2022/01/13 12:55:55;;;;;;;34.80;17.50;;;;;;;;;;5078896;28;20028;-53
2022/01/13 12:58:32;;;;;;;28.75;17.45;;;;;;;;;;5081627;28;20062;-53
2022/01/13 13:01:00;;;;;;;29.38;17.98;;;;;;;;;;5080857;28;20039;-48
2022/01/13 13:03:26;;;;;;;35.38;18.42;;;;;;;;;;5082825;28;20024;-51
2022/01/13 13:05:53;;;;;;;32.00;18.80;;;;;;;;;;5079463;28;20456;-55
2022/01/13 13:08:20;;;;;;;33.83;17.38;;;;;;;;;;5091971;28;20190;-53
2022/01/13 13:10:49;;;;;;;29.10;18.30;;;;;;;;;;5095737;28;20039;-52
2022/01/13 13:13:17;;;;;;;29.02;18.08;;;;;;;;;;5096807;28;20020;-54
2022/01/13 13:15:50;;;;;;;37.95;20.90;;;;;;;;;;5095476;28;20056;-51
2022/01/13 13:18:18;;;;;;;40.80;22.05;;;;;;;;;;5095590;28;20039;-51
2022/01/13 13:20:44;;;;;;;34.05;20.50;;;;;;;;;;5095782;28;20522;-51
2022/01/13 13:23:11;;;;;;;33.08;18.75;;;;;;;;;;5095632;28;20372;-52
2022/01/13 13:25:38;;;;;;;41.28;21.73;;;;;;;;;;5095343;28;20025;-53
2022/01/13 13:28:16;;;;;;;41.25;21.10;;;;;;;;;;5095848;28;20024;-51
2022/01/13 13:30:44;;;;;;;42.33;21.63;;;;;;;;;;5095039;28;20034;-52
2022/01/13 13:33:10;;;;;;;40.53;20.02;;;;;;;;;;5095334;28;20031;-50
2022/01/13 13:35:36;;;;;;;34.55;17.70;;;;;;;;;;5090098;28;20032;-53
2022/01/13 13:38:02;;;;;;;39.53;20.48;;;;;;;;;;5074569;28;20045;-56
2022/01/13 13:40:28;;;;;;;43.53;21.00;;;;;;;;;;5075082;28;20056;-49
2022/01/13 13:43:08;;;;;;;42.35;19.75;;;;;;;;;;5075099;28;20047;-53
2022/01/13 13:45:34;;;;;;;37.35;18.23;;;;;;;;;;5054560;28;20024;-54
2022/01/13 13:48:01;;;;;;;37.65;18.08;;;;;;;;;;5075009;28;20025;-53
2022/01/13 13:50:29;;;;;;;41.42;20.20;;;;;;;;;;5056915;28;20020;-54
2022/01/13 13:53:09;;;;;;;38.55;19.48;;;;;;;;;;5074479;28;20081;-51
2022/01/13 13:55:36;;;;;;;39.30;21.35;;;;;;;;;;5075288;28;20021;-49
2022/01/13 13:58:03;;;;;;;45.97;19.83;;;;;;;;;;5074864;28;20048;-50
2022/01/13 14:00:29;;;;;;;42.22;20.98;;;;;;;;;;5074430;28;20358;-49
2022/01/13 14:02:57;;;;;;;48.00;21.77;;;;;;;;;;5074769;28;20032;-52
2022/01/13 14:05:27;;;;;;;45.75;23.40;;;;;;;;;;5074721;28;20025;-55
2022/01/13 14:08:04;;;;;;;45.95;23.38;;;;;;;;;;5074581;28;20012;-48
2022/01/13 14:10:32;;;;;;;43.75;22.98;;;;;;;;;;5074903;28;20346;-49
2022/01/13 14:13:04;;;;;;;49.03;23.35;;;;;;;;;;5073756;28;20351;-50
2022/01/13 14:15:40;;;;;;;44.83;23.00;;;;;;;;;;5077357;28;20029;-52
2022/01/13 14:18:14;;;;;;;39.08;20.92;;;;;;;;;;5084616;28;20031;-52
2022/01/13 14:20:40;;;;;;;45.03;22.33;;;;;;;;;;5084260;28;20036;-49
2022/01/13 14:23:17;;;;;;;45.58;19.77;;;;;;;;;;5083509;28;20020;-52
2022/01/13 14:25:45;;;;;;;40.70;19.60;;;;;;;;;;5080890;28;20106;-53
2022/01/13 14:28:12;;;;;;;41.13;19.48;;;;;;;;;;5074028;28;20485;-52
2022/01/13 14:30:38;;;;;;;40.17;19.67;;;;;;;;;;5073797;28;20111;-53
2022/01/13 14:33:13;;;;;;;44.70;20.88;;;;;;;;;;5073922;28;20017;-48
2022/01/13 14:35:40;;;;;;;58.17;24.85;;;;;;;;;;5073488;28;20104;-51
2022/01/13 14:38:12;;;;;;;67.82;27.98;;;;;;;;;;5072881;28;20381;-55
2022/01/13 14:40:46;;;;;;;52.10;23.00;;;;;;;;;;5073273;28;20469;-55
2022/01/13 14:43:20;;;;;;;48.55;23.27;;;;;;;;;;5073657;28;20056;-51
2022/01/13 14:46:03;;;;;;;52.17;24.60;;;;;;;;;;5072814;28;20020;-51
2022/01/13 14:48:29;;;;;;;49.75;23.73;;;;;;;;;;5073860;28;20029;-53
2022/01/13 14:51:03;;;;;;;50.63;24.08;;;;;;;;;;5073945;28;20063;-51
2022/01/13 14:53:29;;;;;;;55.47;24.83;;;;;;;;;;5073387;28;20031;-55
2022/01/13 14:55:55;;;;;;;60.42;25.33;;;;;;;;;;5073319;28;20108;-53
2022/01/13 14:58:21;;;;;;;56.72;25.60;;;;;;;;;;5073122;28;20051;-48
2022/01/13 15:00:48;;;;;;;50.63;24.83;;;;;;;;;;5073767;28;20031;-50